Time;durP1;ratioP1;P1;durP2;ratioP2;P2;SDS_P1;SDS_P2;PMS_P1;PMS_P2;Temp;Humidity;BMP_temperature;BMP_pressure;BME280_temperature;BME280_humidity;BME280_pressure;Samples;Min_cycle;Max_cycle;Signal;HPM_P1;HPM_P2
2022/07/27 00:01:16;;;;;;;7.75;3.30;;;;;;;13.44;81.39;101796.97;10410572;28;20100;-75
2022/07/27 00:06:17;;;;;;;5.88;2.05;;;;;;;13.44;80.55;101801.34;10376571;28;20044;-75
2022/07/27 00:11:17;;;;;;;12.85;3.63;;;;;;;13.37;80.96;101794.81;10393044;28;20868;-75
2022/07/27 00:16:18;;;;;;;7.22;3.03;;;;;;;13.19;80.97;101793.06;10407693;28;20054;-75
2022/07/27 00:21:18;;;;;;;11.48;2.83;;;;;;;12.91;80.90;101803.88;10403245;28;20118;-75
2022/07/27 00:26:19;;;;;;;5.80;2.90;;;;;;;12.60;82.71;101802.22;10398003;28;20037;-75
2022/07/27 00:31:19;;;;;;;7.13;3.08;;;;;;;12.35;83.79;101798.25;10384781;28;20061;-75
2022/07/27 00:36:20;;;;;;;5.45;3.78;;;;;;;12.06;85.32;101799.22;10390219;28;20033;-75
2022/07/27 00:41:20;;;;;;;10.20;4.07;;;;;;;11.86;86.00;101798.97;10404475;28;20047;-75
2022/07/27 00:46:21;;;;;;;11.00;2.95;;;;;;;11.67;86.57;101799.63;10367967;28;20041;-75
2022/07/27 00:51:22;;;;;;;5.85;2.50;;;;;;;11.48;88.02;101792.41;10360200;28;20398;-76
2022/07/27 00:56:22;;;;;;;6.18;2.75;;;;;;;11.33;90.00;101798.53;10384234;28;20075;-76
2022/07/27 01:01:23;;;;;;;7.43;2.72;;;;;;;11.18;90.44;101801.16;10369540;28;20493;-76
2022/07/27 01:06:23;;;;;;;5.57;2.85;;;;;;;10.94;90.97;101805.81;10383898;28;20119;-75
2022/07/27 01:11:24;;;;;;;10.63;2.90;;;;;;;10.74;92.10;101792.38;10358401;28;20076;-75
2022/07/27 01:16:24;;;;;;;12.25;4.13;;;;;;;10.60;92.64;101791.56;10384314;28;20384;-75
2022/07/27 01:21:25;;;;;;;7.18;4.47;;;;;;;10.56;94.11;101787.81;10367860;28;20041;-75
2022/07/27 01:26:25;;;;;;;7.80;3.72;;;;;;;10.55;94.83;101795.59;10365951;28;20098;-76
2022/07/27 01:31:28;;;;;;;9.30;4.65;;;;;;;10.48;94.39;101796.03;10383431;28;20436;-76
2022/07/27 01:36:29;;;;;;;8.32;4.13;;;;;;;10.31;95.28;101800.13;10368304;28;20042;-76
2022/07/27 01:41:30;;;;;;;13.70;4.22;;;;;;;10.14;95.91;101798.25;10383752;28;20037;-76
2022/07/27 01:46:30;;;;;;;8.48;4.65;;;;;;;10.02;96.96;101794.84;10400888;28;20105;-76
2022/07/27 01:51:31;;;;;;;11.13;4.22;;;;;;;9.95;98.01;101798.78;10382849;28;20061;-76
2022/07/27 01:56:31;;;;;;;10.18;4.32;;;;;;;9.82;98.52;101783.09;10382667;28;20477;-76
2022/07/27 02:01:32;;;;;;;15.80;3.95;;;;;;;9.65;98.82;101801.19;10377337;28;20116;-76
2022/07/27 02:06:32;;;;;;;7.90;4.40;;;;;;;9.48;98.93;101792.22;10399240;28;20037;-76
2022/07/27 02:16:52;;;;;;;11.43;5.78;;;;;;;9.21;99.96;101788.66;10385032;28;20041;-77
2022/07/27 02:21:53;;;;;;;8.55;4.43;;;;;;;9.09;100.00;101781.78;10398727;28;20493;-76
2022/07/27 02:26:53;;;;;;;10.70;5.05;;;;;;;9.05;100.00;101789.31;10382836;28;20038;-76
2022/07/27 02:31:54;;;;;;;11.65;7.40;;;;;;;9.05;100.00;101782.38;10378583;28;20473;-75
2022/07/27 02:36:54;;;;;;;9.90;4.40;;;;;;;8.94;100.00;101776.44;10399614;28;20041;-76
2022/07/27 02:41:55;;;;;;;9.88;4.88;;;;;;;8.86;100.00;101776.69;10359378;28;20477;-76
2022/07/27 02:46:55;;;;;;;8.80;4.50;;;;;;;8.77;100.00;101783.09;10378693;28;20072;-77
2022/07/27 02:51:56;;;;;;;11.10;5.75;;;;;;;8.66;100.00;101776.22;10397068;28;20041;-74
2022/07/27 02:56:57;;;;;;;11.07;5.70;;;;;;;8.57;100.00;101780.78;10397722;28;20037;-74
2022/07/27 03:01:57;;;;;;;8.07;4.60;;;;;;;8.51;100.00;101776.94;10397397;28;20041;-75
2022/07/27 03:06:58;;;;;;;11.68;4.95;;;;;;;8.43;100.00;101775.47;10377820;28;20436;-75
2022/07/27 03:11:58;;;;;;;11.38;6.05;;;;;;;8.36;100.00;101781.03;10390295;28;20176;-76
2022/07/27 03:16:59;;;;;;;11.45;5.20;;;;;;;8.30;100.00;101784.13;10398409;28;20387;-76
2022/07/27 03:21:59;;;;;;;10.18;5.43;;;;;;;8.29;100.00;101789.22;10393200;28;20094;-76
2022/07/27 03:27:00;;;;;;;13.68;5.60;;;;;;;8.28;100.00;101795.22;10381256;28;20072;-76
2022/07/27 03:32:01;;;;;;;10.40;6.35;;;;;;;8.31;100.00;101790.22;10360107;28;20460;-77
2022/07/27 03:37:01;;;;;;;12.38;6.15;;;;;;;8.28;100.00;101797.84;10378867;28;20041;-77
2022/07/27 03:42:02;;;;;;;10.38;5.93;;;;;;;8.21;100.00;101797.41;10395824;28;20037;-77
2022/07/27 03:47:03;;;;;;;12.05;6.18;;;;;;;8.20;100.00;101802.53;10380091;28;20037;-76
2022/07/27 03:52:04;;;;;;;10.57;6.03;;;;;;;8.21;100.00;101802.63;10399091;28;20466;-76
2022/07/27 03:57:04;;;;;;;12.55;6.57;;;;;;;8.27;100.00;101806.47;10387751;28;20026;-75
2022/07/27 04:02:05;;;;;;;10.48;7.10;;;;;;;8.25;100.00;101798.53;10362039;28;20040;-75
2022/07/27 04:07:06;;;;;;;13.75;6.10;;;;;;;8.21;100.00;101800.00;10364113;28;20077;-76
2022/07/27 04:12:07;;;;;;;11.00;5.63;;;;;;;8.16;100.00;101809.19;10363197;28;20134;-75
2022/07/27 04:17:07;;;;;;;11.20;7.20;;;;;;;8.17;100.00;101807.50;10364923;28;20045;-76
2022/07/27 04:22:08;;;;;;;10.63;6.55;;;;;;;8.20;100.00;101806.00;10357214;28;20066;-75
2022/07/27 04:27:08;;;;;;;17.23;8.25;;;;;;;8.29;100.00;101812.69;10336155;28;20034;-75
2022/07/27 04:32:09;;;;;;;13.60;6.40;;;;;;;8.32;100.00;101818.13;10350832;28;20121;-75
2022/07/27 04:37:09;;;;;;;12.55;7.15;;;;;;;8.38;100.00;101813.34;10353203;28;20107;-76
2022/07/27 04:42:10;;;;;;;16.13;6.57;;;;;;;8.41;100.00;101820.50;10358311;28;20121;-75
2022/07/27 04:47:11;;;;;;;16.13;7.03;;;;;;;8.58;100.00;101833.09;10357991;28;20048;-74
2022/07/27 04:52:14;;;;;;;12.73;8.38;;;;;;;8.71;100.00;101828.75;10359255;28;20482;-75
2022/07/27 04:57:14;;;;;;;13.68;7.38;;;;;;;8.79;100.00;101820.63;10361444;28;20493;-74
2022/07/27 05:02:15;;;;;;;11.82;8.25;;;;;;;8.87;100.00;101825.50;10398858;28;20038;-74
2022/07/27 05:07:15;;;;;;;15.70;7.20;;;;;;;8.96;100.00;101829.66;10369381;28;20040;-74
2022/07/27 05:12:16;;;;;;;14.38;7.45;;;;;;;9.06;100.00;101836.41;10401540;28;20125;-74
2022/07/27 05:17:16;;;;;;;11.07;7.00;;;;;;;9.24;100.00;101833.25;10383818;28;20116;-75
2022/07/27 05:22:17;;;;;;;9.40;6.03;;;;;;;9.47;100.00;101831.31;10402291;28;20029;-75
2022/07/27 05:27:18;;;;;;;11.88;7.53;;;;;;;10.01;100.00;101837.50;10382932;28;20060;-76
2022/07/27 05:32:20;;;;;;;9.00;5.10;;;;;;;11.41;100.00;101827.84;10370456;28;20037;-77
2022/07/27 05:37:21;;;;;;;10.07;5.05;;;;;;;13.07;100.00;101822.25;10384054;28;20037;-77
2022/07/27 05:42:22;;;;;;;10.32;3.63;;;;;;;14.39;95.82;101835.78;10381528;28;20509;-75
2022/07/27 05:47:22;;;;;;;6.35;3.28;;;;;;;15.71;79.93;101839.94;10399031;28;20058;-75
2022/07/27 05:52:23;;;;;;;6.15;3.28;;;;;;;16.83;71.33;101833.78;10399574;28;20404;-76
2022/07/27 05:57:23;;;;;;;5.20;2.95;;;;;;;17.79;68.62;101838.91;10400350;28;20124;-75
2022/07/27 06:02:24;;;;;;;6.13;2.57;;;;;;;18.92;64.36;101825.59;10400309;28;20447;-75
2022/07/27 06:12:44;;;;;;;7.65;2.50;;;;;;;20.50;56.47;101826.94;10370386;28;20045;-75
2022/07/27 06:17:45;;;;;;;4.37;2.30;;;;;;;21.25;53.78;101832.03;10383267;28;20045;-75
2022/07/27 06:22:53;;;;;;;;;;;;;;;21.84;51.42;101840.19;10352711;28;20033;-75
2022/07/27 06:27:53;;;;;;;8.43;2.30;;;;;;;22.29;50.24;101828.44;10397285;28;19928;-75
2022/07/27 06:32:54;;;;;;;7.97;1.90;;;;;;;23.25;46.81;101834.13;10382712;28;20455;-76
2022/07/27 06:37:54;;;;;;;5.17;1.90;;;;;;;23.06;46.77;101840.97;10397897;28;20035;-76
2022/07/27 06:42:55;;;;;;;7.70;1.93;;;;;;;23.01;46.82;101832.94;10399358;28;20396;-76
2022/07/27 06:47:56;;;;;;;4.80;2.20;;;;;;;23.60;44.30;101836.22;10382062;28;20029;-76
2022/07/27 06:52:56;;;;;;;5.38;1.52;;;;;;;24.25;43.95;101830.47;10361896;28;20204;-74
2022/07/27 06:57:57;;;;;;;8.03;2.53;;;;;;;24.09;44.34;101833.94;10375189;28;20112;-74
2022/07/27 07:02:59;;;;;;;6.03;1.97;;;;;;;23.88;43.58;101836.47;10379482;28;20470;-75
2022/07/27 07:08:00;;;;;;;3.42;1.38;;;;;;;24.64;42.53;101844.06;10342361;28;20125;-75
2022/07/27 07:13:02;;;;;;;3.80;1.50;;;;;;;24.93;40.70;101838.84;10363088;28;20030;-75
2022/07/27 07:18:03;;;;;;;5.68;1.55;;;;;;;25.49;39.66;101843.47;10346473;28;20036;-75
2022/07/27 07:23:04;;;;;;;6.40;2.30;;;;;;;25.78;39.37;101838.09;10336454;28;20040;-75
2022/07/27 07:28:05;;;;;;;23.17;2.65;;;;;;;25.73;38.37;101841.69;10364082;28;20072;-74
2022/07/27 07:33:06;;;;;;;;;;;;;;;25.63;39.11;101849.75;10388143;28;20037;-76
2022/07/27 07:38:06;;;;;;;7.23;1.53;;;;;;;25.45;41.97;101853.28;10403634;28;19932;-75
2022/07/27 07:43:07;;;;;;;5.43;2.13;;;;;;;23.22;44.98;101851.84;10405757;28;20034;-75
2022/07/27 07:48:10;;;;;;;2.33;1.30;;;;;;;23.30;45.94;101858.19;10367938;28;20064;-76
2022/07/27 07:53:10;;;;;;;4.25;1.73;;;;;;;24.19;44.25;101862.53;10405486;28;20030;-75
2022/07/27 07:58:11;;;;;;;3.40;1.37;;;;;;;25.49;39.35;101856.88;10386382;28;20498;-75
2022/07/27 08:03:12;;;;;;;4.60;1.73;;;;;;;27.20;35.47;101854.72;10387176;28;20065;-75
2022/07/27 08:08:12;;;;;;;9.10;1.70;;;;;;;28.79;31.15;101853.28;10386354;28;20098;-75
2022/07/27 08:13:13;;;;;;;5.93;1.13;;;;;;;28.60;30.65;101849.91;10404525;28;20068;-75
2022/07/27 08:18:13;;;;;;;3.88;2.10;;;;;;;28.03;33.31;101862.16;10384852;28;20124;-75
2022/07/27 08:23:14;;;;;;;3.33;1.93;;;;;;;24.55;35.75;101865.44;10387406;28;20553;-75
2022/07/27 08:28:14;;;;;;;3.73;1.83;;;;;;;20.96;44.64;101874.03;10367934;28;20167;-75
2022/07/27 08:33:15;;;;;;;3.93;2.33;;;;;;;19.24;49.71;101875.16;10404583;28;20043;-75
2022/07/27 08:38:15;;;;;;;7.50;2.20;;;;;;;18.29;53.60;101885.56;10368605;28;20034;-74
2022/07/27 08:43:18;;;;;;;4.90;1.92;;;;;;;18.38;54.05;101884.97;10386163;28;20120;-74
2022/07/27 08:48:18;;;;;;;3.80;1.60;;;;;;;19.81;53.44;101877.59;10385317;28;20037;-74
2022/07/27 08:53:19;;;;;;;3.55;0.80;;;;;;;21.51;47.27;101873.31;10370231;28;20040;-75
2022/07/27 08:58:19;;;;;;;2.47;0.70;;;;;;;25.57;37.58;101860.47;10368364;28;20038;-75
2022/07/27 09:03:21;;;;;;;5.53;1.13;;;;;;;27.52;33.02;101860.81;10384314;28;20392;-75
2022/07/27 09:08:24;;;;;;;;;;;;;;;28.03;31.30;101854.97;10368161;28;20041;-74
2022/07/27 09:13:32;;;;;;;3.03;1.00;;;;;;;28.54;32.86;101851.78;10402208;28;20314;-75
2022/07/27 09:18:33;;;;;;;3.35;1.13;;;;;;;29.24;30.58;101848.16;10384188;28;20493;-75
2022/07/27 09:23:33;;;;;;;1.92;0.85;;;;;;;25.41;34.88;101853.25;10368305;28;20038;-75
2022/07/27 09:28:34;;;;;;;2.80;1.30;;;;;;;26.21;34.99;101866.72;10329596;28;20038;-74
2022/07/27 09:33:48;;;;;;;1.17;0.63;;;;;;;28.73;32.09;101862.31;10376937;28;20040;-75
2022/07/27 09:38:54;;;;;;;4.07;0.68;;;;;;;29.56;30.50;101867.50;10400648;28;20044;-75
2022/07/27 09:43:55;;;;;;;4.80;0.85;;;;;;;30.07;29.96;101874.72;10384486;28;20025;-75
2022/07/27 09:48:55;;;;;;;6.32;1.92;;;;;;;31.23;27.50;101868.78;10365326;28;20464;-75
2022/07/27 09:53:56;;;;;;;;;;;;;;;31.33;27.84;101859.53;10383379;28;20128;-76
2022/07/27 09:58:58;;;;;;;5.73;1.33;;;;;;;31.41;25.70;101856.66;10400968;28;19948;-75
2022/07/27 10:04:00;;;;;;;4.03;0.90;;;;;;;31.23;26.44;101857.09;10383010;28;20057;-76
2022/07/27 10:09:01;;;;;;;5.55;1.42;;;;;;;31.54;25.33;101859.94;10364512;28;20037;-76
2022/07/27 10:14:01;;;;;;;2.35;1.00;;;;;;;30.74;27.88;101851.84;10381087;28;20437;-76
2022/07/27 10:19:11;;;;;;;1.57;0.93;;;;;;;29.97;27.24;101848.78;10400035;28;20038;-76
2022/07/27 10:24:35;;;;;;;2.65;1.13;;;;;;;31.26;27.87;101849.78;10366214;28;20042;-75
2022/07/27 10:29:35;;;;;;;3.65;0.80;;;;;;;30.13;27.42;101847.63;10383552;28;20040;-76
2022/07/27 10:34:40;;;;;;;3.93;2.10;;;;;;;25.86;31.59;101853.31;10365376;28;20042;-76
2022/07/27 10:39:42;;;;;;;4.47;0.90;;;;;;;23.74;34.92;101860.38;10366286;28;20034;-76
2022/07/27 10:45:11;;;;;;;5.93;1.45;;;;;;;22.48;39.37;101868.72;10365151;28;20370;-75
2022/07/27 10:50:14;;;;;;;2.25;0.80;;;;;;;22.11;40.18;101866.38;10374213;28;20504;-77
2022/07/27 10:55:30;;;;;;;3.03;0.98;;;;;;;22.08;40.89;101862.75;10398474;28;20401;-76
2022/07/27 11:00:48;;;;;;;3.92;1.23;;;;;;;22.12;41.22;101853.94;10384622;28;20053;-76
2022/07/27 11:05:58;;;;;;;2.88;1.00;;;;;;;26.36;35.99;101836.25;10388713;28;20041;-76
2022/07/27 11:10:59;;;;;;;5.18;1.42;;;;;;;29.99;28.74;101833.50;10371225;28;20132;-74
2022/07/27 11:16:02;;;;;;;9.20;2.60;;;;;;;31.10;26.03;101830.31;10365857;28;20393;-74
2022/07/27 11:21:21;;;;;;;2.53;0.85;;;;;;;26.76;31.55;101837.91;10398475;28;20033;-75
2022/07/27 11:26:24;;;;;;;1.85;0.82;;;;;;;25.68;34.19;101839.00;10386790;28;20037;-76
2022/07/27 11:31:24;;;;;;;2.58;1.35;;;;;;;25.72;32.22;101826.50;10380723;28;20034;-74
2022/07/27 11:36:42;;;;;;;5.37;2.03;;;;;;;23.98;36.19;101831.19;10353818;28;20034;-75
2022/07/27 11:41:42;;;;;;;4.30;0.98;;;;;;;23.11;36.24;101823.25;10367995;28;20120;-75
2022/07/27 11:46:44;;;;;;;2.03;0.80;;;;;;;23.84;37.29;101820.38;10348940;28;20393;-75
2022/07/27 11:51:46;;;;;;;2.15;0.82;;;;;;;27.77;31.58;101810.38;10378046;28;20049;-75
2022/07/27 11:56:51;;;;;;;3.97;0.90;;;;;;;29.21;25.99;101810.47;10347090;28;20049;-75
2022/07/27 12:01:57;;;;;;;3.45;0.80;;;;;;;29.45;24.99;101803.84;10336098;28;20041;-75
2022/07/27 12:07:01;;;;;;;3.17;0.95;;;;;;;29.72;25.63;101790.78;10326113;28;20046;-75
2022/07/27 12:12:25;;;;;;;1.60;0.60;;;;;;;29.24;26.65;101794.25;10352282;28;20069;-76
2022/07/27 12:17:38;;;;;;;2.60;0.88;;;;;;;28.96;24.60;101796.50;10356028;28;20057;-76
2022/07/27 12:22:40;;;;;;;6.85;3.95;;;;;;;28.98;26.78;101791.97;10346391;28;20037;-75
2022/07/27 12:27:41;;;;;;;2.05;1.00;;;;;;;27.29;28.15;101799.13;10363054;28;20060;-75
2022/07/27 12:32:43;;;;;;;4.45;1.25;;;;;;;24.69;31.15;101802.16;10334307;28;20030;-75
2022/07/27 12:37:43;;;;;;;2.08;0.75;;;;;;;23.29;30.90;101801.22;10338914;28;20029;-75
2022/07/27 12:42:44;;;;;;;1.00;0.60;;;;;;;22.51;35.85;101803.88;10360159;28;20482;-74
2022/07/27 12:47:45;;;;;;;2.53;1.90;;;;;;;24.20;32.07;101800.16;10359851;28;20030;-76
2022/07/27 12:52:47;;;;;;;1.50;0.70;;;;;;;27.57;29.52;101804.31;10327483;28;20111;-76
2022/07/27 12:57:48;;;;;;;4.07;0.80;;;;;;;25.88;28.14;101812.19;10344015;28;20076;-75
2022/07/27 13:02:49;;;;;;;2.13;0.75;;;;;;;23.98;32.29;101808.00;10372138;28;20033;-76
2022/07/27 13:07:49;;;;;;;3.30;0.77;;;;;;;23.28;35.33;101803.84;10369110;28;20497;-75
2022/07/27 13:12:50;;;;;;;1.63;0.67;;;;;;;24.84;32.67;101790.63;10382836;28;20037;-74
2022/07/27 13:17:51;;;;;;;2.13;0.60;;;;;;;27.94;26.23;101782.44;10338004;28;20041;-76
2022/07/27 13:22:52;;;;;;;1.50;0.70;;;;;;;26.32;29.38;101777.25;10402172;28;20038;-76
2022/07/27 13:27:53;;;;;;;2.47;1.10;;;;;;;27.07;26.61;101767.94;10391924;28;20186;-77
2022/07/27 13:32:54;;;;;;;2.47;0.95;;;;;;;27.49;26.21;101769.44;10400441;28;20041;-75
2022/07/27 13:37:54;;;;;;;1.13;0.40;;;;;;;24.17;31.29;101773.38;10396241;28;20072;-74
2022/07/27 13:42:58;;;;;;;1.43;0.80;;;;;;;22.38;33.76;101770.75;10345009;28;20510;-76
2022/07/27 13:47:58;;;;;;;3.15;1.25;;;;;;;22.02;34.05;101769.38;10372714;28;20104;-75
2022/07/27 13:53:00;;;;;;;3.22;1.35;;;;;;;23.25;34.32;101769.13;10400251;28;20183;-76
2022/07/27 13:58:04;;;;;;;2.35;0.88;;;;;;;25.34;32.57;101746.09;10378554;28;20045;-76
2022/07/27 14:03:05;;;;;;;2.83;1.00;;;;;;;27.05;26.91;101761.69;10360141;28;20049;-74
2022/07/27 14:08:05;;;;;;;4.60;1.13;;;;;;;27.98;26.26;101738.47;10342434;28;20038;-76
2022/07/27 14:13:08;;;;;;;2.83;1.13;;;;;;;28.09;24.87;101743.72;10342937;28;20277;-75
2022/07/27 14:18:09;;;;;;;7.85;3.10;;;;;;;28.64;25.80;101736.75;10370459;28;20034;-75
2022/07/27 14:23:09;;;;;;;4.50;2.10;;;;;;;28.37;26.13;101738.03;10361975;28;20124;-77
2022/07/27 14:28:10;;;;;;;1.47;0.63;;;;;;;27.76;25.79;101741.38;10384714;28;20044;-76
2022/07/27 14:33:10;;;;;;;1.93;0.90;;;;;;;24.80;29.58;101742.47;10385703;28;20044;-76
2022/07/27 14:38:11;;;;;;;8.35;1.95;;;;;;;23.41;31.52;101744.34;10383146;28;20040;-76
2022/07/27 14:43:12;;;;;;;2.77;0.87;;;;;;;22.41;33.40;101736.13;10400665;28;20519;-75
2022/07/27 14:48:14;;;;;;;4.60;1.20;;;;;;;21.66;34.47;101727.13;10382877;28;20042;-76
2022/07/27 14:53:14;;;;;;;2.67;1.13;;;;;;;20.81;39.18;101729.19;10381918;28;20039;-74
2022/07/27 14:58:15;;;;;;;4.18;0.95;;;;;;;22.73;35.56;101725.88;10400465;28;20061;-74
2022/07/27 15:03:16;;;;;;;2.22;1.20;;;;;;;24.51;31.97;101708.47;10346335;28;20091;-74
2022/07/27 15:08:20;;;;;;;7.22;3.38;;;;;;;25.16;30.72;101704.09;10376097;28;20136;-75
2022/07/27 15:13:20;;;;;;;4.40;1.52;;;;;;;26.08;30.56;101702.19;10397054;28;20088;-74
2022/07/27 15:18:22;;;;;;;3.63;1.00;;;;;;;26.50;29.91;101704.72;10368293;28;20049;-76
2022/07/27 15:23:27;;;;;;;1.88;1.00;;;;;;;25.61;30.14;101701.44;10358524;28;20034;-75
2022/07/27 15:28:28;;;;;;;4.50;0.90;;;;;;;23.82;32.12;101707.22;10374329;28;20041;-74
2022/07/27 15:33:29;;;;;;;2.93;0.77;;;;;;;22.54;34.45;101713.22;10364257;28;20037;-76
2022/07/27 15:38:31;;;;;;;5.25;0.90;;;;;;;21.66;36.58;101704.94;10364643;28;20489;-73
2022/07/27 15:43:34;;;;;;;9.17;2.00;;;;;;;21.40;39.99;101700.06;10377258;28;20041;-74
2022/07/27 15:48:34;;;;;;;2.75;1.05;;;;;;;22.06;35.20;101694.84;10392699;28;20062;-74
2022/07/27 15:53:35;;;;;;;5.75;1.58;;;;;;;22.50;35.58;101693.59;10371812;28;20125;-74
2022/07/27 15:58:35;;;;;;;3.50;0.93;;;;;;;22.73;36.28;101687.63;10380509;28;20057;-74
2022/07/27 16:03:36;;;;;;;1.30;0.80;;;;;;;22.61;34.58;101687.50;10372377;28;20045;-75
2022/07/27 16:08:37;;;;;;;4.10;1.38;;;;;;;22.12;35.55;101689.59;10385610;28;20033;-74
2022/07/27 16:13:37;;;;;;;6.60;1.90;;;;;;;21.75;37.78;101688.16;10383858;28;20068;-75
2022/07/27 16:18:38;;;;;;;1.88;0.77;;;;;;;21.29;38.68;101683.03;10381468;28;20046;-76
2022/07/27 16:23:38;;;;;;;2.90;1.00;;;;;;;20.77;39.81;101690.06;10397745;28;20126;-75
2022/07/27 16:28:41;;;;;;;7.45;1.45;;;;;;;20.59;41.68;101677.34;10356020;28;20479;-75
2022/07/27 16:33:45;;;;;;;7.45;1.05;;;;;;;20.44;41.50;101671.72;10362853;28;20041;-76
2022/07/27 16:38:47;;;;;;;5.50;1.70;;;;;;;20.29;45.47;101677.63;10379573;28;20034;-74
2022/07/27 16:43:48;;;;;;;4.80;1.10;;;;;;;20.19;43.82;101676.56;10381964;28;20038;-75
2022/07/27 16:48:52;;;;;;;5.95;1.15;;;;;;;20.52;41.74;101671.00;10368419;28;20458;-75
2022/07/27 16:53:53;;;;;;;5.47;2.30;;;;;;;20.39;42.05;101668.97;10363837;28;20099;-76
2022/07/27 16:58:54;;;;;;;2.92;1.10;;;;;;;20.53;39.80;101678.09;10319572;28;20092;-74
2022/07/27 17:03:55;;;;;;;4.83;2.67;;;;;;;20.54;42.04;101674.56;10362760;28;20068;-75
2022/07/27 17:08:56;;;;;;;2.10;1.13;;;;;;;20.56;43.92;101679.03;10361899;28;20053;-75
2022/07/27 17:13:57;;;;;;;3.67;1.50;;;;;;;20.67;41.81;101682.78;10392363;28;20082;-74
2022/07/27 17:18:57;;;;;;;4.53;1.05;;;;;;;20.71;40.36;101673.13;10358023;28;20026;-74
2022/07/27 17:23:58;;;;;;;4.35;1.52;;;;;;;20.50;41.63;101677.16;10346989;28;20030;-74
2022/07/27 17:29:00;;;;;;;11.80;1.65;;;;;;;20.36;41.69;101669.81;10381496;28;20073;-74
2022/07/27 17:34:01;;;;;;;2.25;1.10;;;;;;;20.16;42.33;101665.84;10384476;28;20033;-73
2022/07/27 17:39:04;;;;;;;3.40;1.00;;;;;;;19.89;43.70;101667.03;10399591;28;20037;-74
2022/07/27 17:44:05;;;;;;;2.38;1.15;;;;;;;19.61;43.62;101661.97;10381861;28;20059;-75
2022/07/27 17:49:06;;;;;;;2.58;1.55;;;;;;;19.31;42.69;101657.75;10389141;28;20056;-74
2022/07/27 17:54:06;;;;;;;2.22;1.17;;;;;;;19.06;44.09;101651.81;10384221;28;20389;-74
2022/07/27 17:59:07;;;;;;;2.63;1.20;;;;;;;18.75;45.07;101658.09;10380855;28;20041;-75
2022/07/27 18:04:08;;;;;;;5.70;1.73;;;;;;;18.69;48.46;101653.50;10400718;28;20037;-75
2022/07/27 18:09:08;;;;;;;6.65;3.10;;;;;;;18.44;48.68;101660.78;10361046;28;20184;-76
2022/07/27 18:14:11;;;;;;;5.57;1.10;;;;;;;18.28;49.15;101664.75;10359793;28;20054;-76
2022/07/27 18:19:12;;;;;;;2.13;1.10;;;;;;;18.16;49.57;101662.66;10365616;28;20076;-74
2022/07/27 18:24:13;;;;;;;3.63;0.90;;;;;;;18.12;51.43;101660.75;10383310;28;20125;-74
2022/07/27 18:29:14;;;;;;;3.55;1.25;;;;;;;18.01;53.96;101667.50;10360954;28;20034;-74
2022/07/27 18:34:16;;;;;;;3.97;1.03;;;;;;;17.78;55.58;101674.72;10342868;28;20056;-75
2022/07/27 18:39:16;;;;;;;2.97;1.00;;;;;;;17.59;56.97;101674.16;10379570;28;20432;-74
2022/07/27 18:44:17;;;;;;;2.20;1.50;;;;;;;17.35;57.29;101675.16;10392382;28;20091;-75
2022/07/27 18:49:19;;;;;;;5.80;1.92;;;;;;;17.16;57.35;101676.28;10379238;28;20068;-75
2022/07/27 18:54:20;;;;;;;5.22;1.30;;;;;;;16.79;58.05;101680.28;10390807;28;20030;-75
2022/07/27 18:59:20;;;;;;;7.03;1.55;;;;;;;16.37;59.90;101677.03;10384649;28;20044;-74
2022/07/27 19:04:21;;;;;;;4.22;1.10;;;;;;;15.94;62.34;101672.78;10397349;28;20395;-74
2022/07/27 19:09:21;;;;;;;2.67;1.30;;;;;;;15.46;64.99;101674.41;10417397;28;20489;-74
2022/07/27 19:14:22;;;;;;;5.45;1.58;;;;;;;15.08;65.93;101686.91;10379752;28;20386;-74
2022/07/27 19:19:23;;;;;;;4.10;1.98;;;;;;;14.77;66.59;101685.59;10402195;28;20033;-74
2022/07/27 19:24:24;;;;;;;5.85;1.83;;;;;;;14.49;67.74;101687.00;10421829;28;20488;-74
2022/07/27 19:29:24;;;;;;;12.57;4.63;;;;;;;14.18;68.63;101693.50;10410967;28;20052;-73
2022/07/27 19:34:25;;;;;;;9.27;1.92;;;;;;;13.83;69.27;101700.63;10407558;28;20043;-73
2022/07/27 19:39:29;;;;;;;11.50;2.63;;;;;;;13.57;71.42;101709.09;10426056;28;20049;-74
2022/07/27 19:44:30;;;;;;;12.18;2.25;;;;;;;13.35;71.88;101715.88;10405415;28;20038;-74
2022/07/27 19:49:31;;;;;;;17.90;3.63;;;;;;;13.12;72.89;101727.84;10408602;28;20033;-74
2022/07/27 19:54:31;;;;;;;15.18;3.30;;;;;;;12.97;73.41;101729.69;10423732;28;20061;-75
2022/07/27 19:59:32;;;;;;;19.85;6.18;;;;;;;12.75;74.41;101745.25;10420191;28;20029;-74
2022/07/27 20:04:35;;;;;;;12.15;5.68;;;;;;;12.61;74.95;101741.88;10384057;28;20129;-74
2022/07/27 20:09:39;;;;;;;12.77;3.80;;;;;;;12.43;75.45;101738.28;10390851;28;20060;-74
2022/07/27 20:14:39;;;;;;;9.40;2.15;;;;;;;12.19;76.63;101734.41;10369568;28;20133;-74
2022/07/27 20:19:40;;;;;;;4.40;2.17;;;;;;;12.04;77.45;101737.06;10364420;28;20037;-74
2022/07/27 20:24:40;;;;;;;6.40;3.05;;;;;;;12.02;78.24;101730.84;10377416;28;20096;-73
2022/07/27 20:29:41;;;;;;;9.50;3.05;;;;;;;11.90;78.85;101733.66;10392731;28;20477;-73
2022/07/27 20:34:41;;;;;;;7.45;2.65;;;;;;;11.90;78.75;101738.00;10386849;28;20492;-74
2022/07/27 20:39:42;;;;;;;8.75;2.80;;;;;;;11.75;79.65;101738.03;10398814;28;20176;-74
2022/07/27 20:44:43;;;;;;;6.45;3.35;;;;;;;11.68;79.78;101742.03;10394670;28;20041;-74
2022/07/27 20:49:43;;;;;;;4.20;1.60;;;;;;;11.59;80.18;101749.34;10369518;28;20109;-75
2022/07/27 20:54:44;;;;;;;8.43;3.88;;;;;;;11.54;81.47;101741.25;10386447;28;20041;-77
2022/07/27 20:59:44;;;;;;;7.20;3.08;;;;;;;11.49;82.34;101744.41;10372131;28;20132;-77
2022/07/27 21:04:45;;;;;;;5.90;1.90;;;;;;;11.38;82.68;101747.28;10373949;28;20200;-76
2022/07/27 21:09:46;;;;;;;10.85;1.85;;;;;;;11.36;83.38;101758.53;10371328;28;20042;-76
2022/07/27 21:14:46;;;;;;;11.25;2.75;;;;;;;11.30;84.04;101762.59;10385285;28;20037;-76
2022/07/27 21:19:47;;;;;;;4.78;1.80;;;;;;;11.27;85.06;101754.53;10347871;28;20034;-76
2022/07/27 21:24:48;;;;;;;2.97;1.85;;;;;;;11.21;85.27;101753.25;10402206;28;20042;-76
2022/07/27 21:29:48;;;;;;;7.22;2.25;;;;;;;11.14;85.31;101750.28;10386144;28;20091;-77
2022/07/27 21:34:49;;;;;;;5.72;2.50;;;;;;;11.22;86.38;101753.38;10346973;28;20489;-76
2022/07/27 21:39:49;;;;;;;5.63;1.98;;;;;;;11.26;86.71;101747.50;10369813;28;20103;-77
2022/07/27 21:44:51;;;;;;;5.18;1.77;;;;;;;11.32;86.17;101760.03;10383435;28;20037;-77
2022/07/27 21:49:51;;;;;;;4.85;1.88;;;;;;;11.24;86.40;101751.75;10347291;28;20070;-77
2022/07/27 21:54:52;;;;;;;5.32;2.08;;;;;;;11.21;86.13;101756.81;10383767;28;20511;-77
2022/07/27 21:59:52;;;;;;;5.50;2.00;;;;;;;11.18;86.13;101756.63;10352732;28;20073;-76
2022/07/27 22:04:53;;;;;;;9.32;3.13;;;;;;;11.25;85.80;101750.00;10363234;28;20107;-77
2022/07/27 22:09:53;;;;;;;5.28;2.92;;;;;;;11.40;84.78;101760.50;10344035;28;20053;-76
2022/07/27 22:14:54;;;;;;;5.57;2.30;;;;;;;11.57;83.17;101754.53;10369396;28;20037;-77
2022/07/27 22:19:54;;;;;;;3.65;1.92;;;;;;;11.72;82.06;101756.22;10381485;28;20447;-76
2022/07/27 22:24:55;;;;;;;4.88;2.80;;;;;;;12.08;80.27;101753.00;10365500;28;20049;-77
2022/07/27 22:29:56;;;;;;;5.90;2.03;;;;;;;12.35;78.63;101753.63;10360693;28;20042;-77
2022/07/27 22:34:57;;;;;;;2.95;1.63;;;;;;;12.49;76.30;101759.59;10387082;28;20040;-78
2022/07/27 22:40:00;;;;;;;3.63;1.77;;;;;;;12.50;77.61;101761.41;10357340;28;20037;-78
2022/07/27 22:45:00;;;;;;;3.20;1.80;;;;;;;12.44;77.47;101763.72;10349384;28;20041;-77
2022/07/27 22:50:07;;;;;;;5.07;1.55;;;;;;;12.49;75.94;101772.72;10328630;28;20060;-75
2022/07/27 22:55:08;;;;;;;4.47;1.70;;;;;;;12.48;77.57;101763.97;10364962;28;20099;-75
2022/07/27 23:00:09;;;;;;;3.55;2.47;;;;;;;12.58;76.36;101765.34;10365013;28;20100;-75
2022/07/27 23:05:10;;;;;;;3.50;2.20;;;;;;;12.58;76.28;101746.97;10362192;28;20052;-73
2022/07/27 23:10:44;;;;;;;7.63;1.70;;;;;;;12.58;76.10;101743.47;10398069;28;20043;-76
2022/07/27 23:15:31;;;;;;;4.78;2.03;;;;;;;12.62;76.44;101763.81;10344899;28;20042;-75